Time;durP1;ratioP1;P1;durP2;ratioP2;P2;SDS_P1;SDS_P2;PMS_P1;PMS_P2;Temp;Humidity;BMP_temperature;BMP_pressure;BME280_temperature;BME280_humidity;BME280_pressure;Samples;Min_cycle;Max_cycle;Signal;HPM_P1;HPM_P2
2021/11/02 00:00:53;;;;;;;0.53;0.47;;;7.40;99.90;;;;;;5064505;28;20255;-81
2021/11/02 00:03:19;;;;;;;0.20;0.20;;;7.60;99.90;;;;;;5063507;28;20184;-80
2021/11/02 00:05:44;;;;;;;1.33;0.50;;;7.70;99.90;;;;;;5069674;28;20765;-81
2021/11/02 00:08:10;;;;;;;0.57;0.53;;;7.70;99.90;;;;;;5062056;28;20174;-81
2021/11/02 00:10:36;;;;;;;0.30;0.30;;;7.60;99.90;;;;;;5062425;28;20281;-80
2021/11/02 00:13:03;;;;;;;0.40;0.40;;;7.60;99.90;;;;;;5055370;28;20601;-80
2021/11/02 00:15:31;;;;;;;0.57;0.43;;;7.60;99.90;;;;;;5067742;28;20177;-81
2021/11/02 00:18:00;;;;;;;0.23;0.23;;;7.70;99.90;;;;;;5061453;28;20251;-80
2021/11/02 00:20:27;;;;;;;0.40;0.40;;;7.70;99.90;;;;;;5068821;28;20659;-81
2021/11/02 00:22:56;;;;;;;0.73;0.50;;;7.70;99.90;;;;;;5050940;28;20241;-80
2021/11/02 00:25:23;;;;;;;0.20;0.20;;;7.80;99.90;;;;;;5064442;28;20194;-80
2021/11/02 00:27:49;;;;;;;0.13;0.13;;;7.80;99.90;;;;;;5064243;28;20241;-81
2021/11/02 00:30:17;;;;;;;0.67;0.40;;;7.80;99.90;;;;;;5065057;28;20215;-81
2021/11/02 00:32:44;;;;;;;0.43;0.43;;;7.90;99.90;;;;;;5063608;28;20180;-81
2021/11/02 00:35:11;;;;;;;2.43;0.43;;;8.10;99.90;;;;;;5059803;28;20268;-80
2021/11/02 00:37:38;;;;;;;0.10;0.10;;;8.10;99.90;;;;;;5060787;28;20179;-81
2021/11/02 00:40:06;;;;;;;1.80;0.77;;;8.10;99.90;;;;;;5064805;28;20197;-81
2021/11/02 00:42:37;;;;;;;0.23;0.23;;;8.10;99.90;;;;;;5058730;28;20173;-80
2021/11/02 00:45:08;;;;;;;0.30;0.30;;;8.10;99.90;;;;;;5052451;28;20685;-81
2021/11/02 00:47:33;;;;;;;0.23;0.23;;;8.20;99.90;;;;;;5057725;28;20178;-80
2021/11/02 00:50:00;;;;;;;0.63;0.43;;;8.20;99.90;;;;;;5066915;28;20192;-80
2021/11/02 00:52:28;;;;;;;0.50;0.50;;;8.20;99.90;;;;;;5063155;28;20254;-81
2021/11/02 00:54:54;;;;;;;0.70;0.70;;;8.10;99.90;;;;;;5066915;28;20179;-80
2021/11/02 00:57:19;;;;;;;0.70;0.70;;;8.10;99.90;;;;;;5066017;28;20181;-81
2021/11/02 00:59:45;;;;;;;0.80;0.80;;;8.10;99.90;;;;;;5066158;28;20638;-80
2021/11/02 01:02:11;;;;;;;1.00;0.60;;;8.00;99.90;;;;;;5061472;28;20173;-80
2021/11/02 01:04:37;;;;;;;0.67;0.67;;;8.10;99.90;;;;;;5063471;28;20260;-81
2021/11/02 01:07:04;;;;;;;0.47;0.47;;;8.20;99.90;;;;;;5061353;28;20811;-81
2021/11/02 01:09:29;;;;;;;0.57;0.57;;;8.20;99.90;;;;;;5058250;28;20201;-81
2021/11/02 01:11:55;;;;;;;1.40;0.37;;;8.30;99.90;;;;;;5065040;28;20231;-80
2021/11/02 01:14:21;;;;;;;0.30;0.30;;;8.40;99.90;;;;;;5064541;28;20169;-80
2021/11/02 01:16:46;;;;;;;0.73;0.73;;;8.20;99.90;;;;;;5058961;28;20264;-81
2021/11/02 01:19:12;;;;;;;0.40;0.30;;;8.20;99.90;;;;;;5067596;28;20208;-80
2021/11/02 01:21:37;;;;;;;0.73;0.47;;;8.10;99.90;;;;;;5059234;28;20662;-80
2021/11/02 01:24:03;;;;;;;0.13;0.13;;;8.10;99.90;;;;;;5063907;28;20233;-81
2021/11/02 01:26:29;;;;;;;0.47;0.30;;;8.10;99.90;;;;;;5060458;28;20200;-81
2021/11/02 01:28:54;;;;;;;0.70;0.70;;;8.00;99.90;;;;;;5068161;28;20691;-80
2021/11/02 01:31:20;;;;;;;0.40;0.23;;;8.00;99.90;;;;;;5062118;28;20176;-80
2021/11/02 01:33:46;;;;;;;0.10;0.10;;;8.20;99.90;;;;;;5061910;28;20184;-80
2021/11/02 01:36:11;;;;;;;0.70;0.70;;;8.20;99.90;;;;;;5065959;28;20182;-80
2021/11/02 01:38:37;;;;;;;0.50;0.43;;;8.40;99.90;;;;;;5060441;28;20183;-81
2021/11/02 01:41:05;;;;;;;0.30;0.30;;;8.60;99.90;;;;;;5062820;28;20181;-80
2021/11/02 01:43:31;;;;;;;0.93;0.83;;;8.70;99.90;;;;;;5057840;28;20177;-81
2021/11/02 01:45:57;;;;;;;0.37;0.37;;;8.70;99.90;;;;;;5057718;28;20645;-80
2021/11/02 01:48:24;;;;;;;0.70;0.70;;;8.70;99.90;;;;;;5061592;28;20201;-81
2021/11/02 01:50:51;;;;;;;0.27;0.27;;;8.50;99.90;;;;;;5061922;28;20673;-81
2021/11/02 01:53:17;;;;;;;0.60;0.60;;;8.40;99.90;;;;;;5058186;28;20633;-81
2021/11/02 01:55:43;;;;;;;2.03;0.70;;;8.60;99.90;;;;;;5059216;28;20182;-80
2021/11/02 01:58:11;;;;;;;0.33;0.33;;;8.60;99.90;;;;;;5057775;28;20177;-80
2021/11/02 02:00:37;;;;;;;0.57;0.53;;;8.60;99.90;;;;;;5053729;28;20353;-81
